sensor_id;sensor_type;location;lat;lon;timestamp;temperature;humidity
20829;DHT22;10575;50.124;8.582;2023-05-19T00:01:26;11.60;99.90
20829;DHT22;10575;50.124;8.582;2023-05-19T00:03:55;11.60;99.90
20829;DHT22;10575;50.124;8.582;2023-05-19T00:06:24;11.60;99.90
20829;DHT22;10575;50.124;8.582;2023-05-19T00:09:09;11.50;99.90
20829;DHT22;10575;50.124;8.582;2023-05-19T00:11:37;11.40;99.90
20829;DHT22;10575;50.124;8.582;2023-05-19T00:14:05;11.40;99.90
20829;DHT22;10575;50.124;8.582;2023-05-19T00:16:31;11.40;99.90
20829;DHT22;10575;50.124;8.582;2023-05-19T00:18:57;11.40;99.90
20829;DHT22;10575;50.124;8.582;2023-05-19T00:21:27;11.40;99.90
20829;DHT22;10575;50.124;8.582;2023-05-19T00:23:53;11.40;99.90
20829;DHT22;10575;50.124;8.582;2023-05-19T00:26:19;11.30;99.90
20829;DHT22;10575;50.124;8.582;2023-05-19T00:28:46;11.20;99.90
20829;DHT22;10575;50.124;8.582;2023-05-19T00:31:11;11.20;99.90
20829;DHT22;10575;50.124;8.582;2023-05-19T00:33:37;11.20;99.90
20829;DHT22;10575;50.124;8.582;2023-05-19T00:36:03;11.20;99.90
20829;DHT22;10575;50.124;8.582;2023-05-19T00:38:33;11.20;99.90
20829;DHT22;10575;50.124;8.582;2023-05-19T00:40:59;11.20;99.90
20829;DHT22;10575;50.124;8.582;2023-05-19T00:43:25;11.20;99.90
20829;DHT22;10575;50.124;8.582;2023-05-19T00:45:51;11.20;99.90
20829;DHT22;10575;50.124;8.582;2023-05-19T00:48:17;11.20;99.90
20829;DHT22;10575;50.124;8.582;2023-05-19T00:50:43;11.20;99.90
20829;DHT22;10575;50.124;8.582;2023-05-19T00:53:09;11.20;99.90
20829;DHT22;10575;50.124;8.582;2023-05-19T00:55:36;11.10;99.90
20829;DHT22;10575;50.124;8.582;2023-05-19T00:58:03;11.20;99.90
20829;DHT22;10575;50.124;8.582;2023-05-19T01:00:30;11.20;99.90
20829;DHT22;10575;50.124;8.582;2023-05-19T01:02:56;11.10;99.90
20829;DHT22;10575;50.124;8.582;2023-05-19T01:05:21;11.10;99.90
20829;DHT22;10575;50.124;8.582;2023-05-19T01:07:47;11.10;99.90
20829;DHT22;10575;50.124;8.582;2023-05-19T01:10:20;11.10;99.90
20829;DHT22;10575;50.124;8.582;2023-05-19T01:12:46;11.00;99.90
20829;DHT22;10575;50.124;8.582;2023-05-19T01:15:12;11.00;99.90
20829;DHT22;10575;50.124;8.582;2023-05-19T01:20:23;11.00;99.90
20829;DHT22;10575;50.124;8.582;2023-05-19T01:25:42;11.00;99.90
20829;DHT22;10575;50.124;8.582;2023-05-19T01:30:53;10.90;99.90
20829;DHT22;10575;50.124;8.582;2023-05-19T01:33:20;11.00;99.90
20829;DHT22;10575;50.124;8.582;2023-05-19T01:35:48;10.90;99.90
20829;DHT22;10575;50.124;8.582;2023-05-19T01:38:16;10.80;99.90
20829;DHT22;10575;50.124;8.582;2023-05-19T01:40:43;10.90;99.90
20829;DHT22;10575;50.124;8.582;2023-05-19T01:43:14;10.90;99.90
20829;DHT22;10575;50.124;8.582;2023-05-19T01:45:41;10.90;99.90
20829;DHT22;10575;50.124;8.582;2023-05-19T01:48:06;10.90;99.90
20829;DHT22;10575;50.124;8.582;2023-05-19T01:50:33;10.90;99.90
20829;DHT22;10575;50.124;8.582;2023-05-19T01:52:59;11.00;99.90
20829;DHT22;10575;50.124;8.582;2023-05-19T01:55:25;11.00;99.90
20829;DHT22;10575;50.124;8.582;2023-05-19T01:58:08;11.10;99.90
20829;DHT22;10575;50.124;8.582;2023-05-19T02:05:57;10.90;99.90
20829;DHT22;10575;50.124;8.582;2023-05-19T02:08:28;10.90;99.90
20829;DHT22;10575;50.124;8.582;2023-05-19T02:10:59;11.00;99.90
20829;DHT22;10575;50.124;8.582;2023-05-19T02:13:30;11.00;99.90
20829;DHT22;10575;50.124;8.582;2023-05-19T02:16:02;11.00;99.90
20829;DHT22;10575;50.124;8.582;2023-05-19T02:18:29;10.90;99.90
20829;DHT22;10575;50.124;8.582;2023-05-19T02:20:54;10.90;99.90
20829;DHT22;10575;50.124;8.582;2023-05-19T02:23:20;10.90;99.90
20829;DHT22;10575;50.124;8.582;2023-05-19T02:25:45;10.90;99.90
20829;DHT22;10575;50.124;8.582;2023-05-19T02:28:11;10.80;99.90
20829;DHT22;10575;50.124;8.582;2023-05-19T02:30:36;10.80;99.90
20829;DHT22;10575;50.124;8.582;2023-05-19T02:33:02;10.80;99.90
20829;DHT22;10575;50.124;8.582;2023-05-19T02:35:30;10.70;99.90
20829;DHT22;10575;50.124;8.582;2023-05-19T02:37:56;10.60;99.90
20829;DHT22;10575;50.124;8.582;2023-05-19T02:40:22;10.60;99.90
20829;DHT22;10575;50.124;8.582;2023-05-19T02:42:47;10.80;99.90
20829;DHT22;10575;50.124;8.582;2023-05-19T02:45:13;10.70;99.90
20829;DHT22;10575;50.124;8.582;2023-05-19T02:47:39;10.50;99.90
20829;DHT22;10575;50.124;8.582;2023-05-19T02:50:07;10.50;99.90
20829;DHT22;10575;50.124;8.582;2023-05-19T02:52:33;10.50;99.90
20829;DHT22;10575;50.124;8.582;2023-05-19T02:54:58;10.40;99.90
20829;DHT22;10575;50.124;8.582;2023-05-19T02:57:24;10.30;99.90
20829;DHT22;10575;50.124;8.582;2023-05-19T02:59:50;10.30;99.90
20829;DHT22;10575;50.124;8.582;2023-05-19T03:02:16;10.20;99.90
20829;DHT22;10575;50.124;8.582;2023-05-19T03:04:41;10.30;99.90
20829;DHT22;10575;50.124;8.582;2023-05-19T03:07:08;10.30;99.90
20829;DHT22;10575;50.124;8.582;2023-05-19T03:09:36;10.40;99.90
20829;DHT22;10575;50.124;8.582;2023-05-19T03:12:01;10.40;99.90
20829;DHT22;10575;50.124;8.582;2023-05-19T03:14:29;10.30;99.90
20829;DHT22;10575;50.124;8.582;2023-05-19T03:16:54;10.30;99.90
20829;DHT22;10575;50.124;8.582;2023-05-19T03:19:20;10.30;99.90
20829;DHT22;10575;50.124;8.582;2023-05-19T03:21:46;10.20;99.90
20829;DHT22;10575;50.124;8.582;2023-05-19T03:24:12;10.00;99.90
20829;DHT22;10575;50.124;8.582;2023-05-19T03:26:37;10.00;99.90
20829;DHT22;10575;50.124;8.582;2023-05-19T03:29:03;9.90;99.90
20829;DHT22;10575;50.124;8.582;2023-05-19T03:31:28;9.80;99.90
20829;DHT22;10575;50.124;8.582;2023-05-19T03:33:55;9.80;99.90
20829;DHT22;10575;50.124;8.582;2023-05-19T03:36:22;9.80;99.90
20829;DHT22;10575;50.124;8.582;2023-05-19T03:38:48;10.00;99.90
20829;DHT22;10575;50.124;8.582;2023-05-19T03:41:14;9.90;99.90
20829;DHT22;10575;50.124;8.582;2023-05-19T03:43:39;10.00;99.90
20829;DHT22;10575;50.124;8.582;2023-05-19T03:46:05;10.00;99.90
20829;DHT22;10575;50.124;8.582;2023-05-19T03:48:30;10.10;99.90
20829;DHT22;10575;50.124;8.582;2023-05-19T03:50:56;10.10;99.90
20829;DHT22;10575;50.124;8.582;2023-05-19T03:53:22;10.20;99.90
20829;DHT22;10575;50.124;8.582;2023-05-19T03:55:48;10.10;99.90
20829;DHT22;10575;50.124;8.582;2023-05-19T03:58:14;10.20;99.90
20829;DHT22;10575;50.124;8.582;2023-05-19T04:00:41;10.40;99.90
20829;DHT22;10575;50.124;8.582;2023-05-19T04:03:06;10.30;99.90
20829;DHT22;10575;50.124;8.582;2023-05-19T04:05:32;10.40;99.90
20829;DHT22;10575;50.124;8.582;2023-05-19T04:07:58;10.50;99.90
20829;DHT22;10575;50.124;8.582;2023-05-19T04:10:24;10.60;99.90
20829;DHT22;10575;50.124;8.582;2023-05-19T04:12:50;10.50;99.90
20829;DHT22;10575;50.124;8.582;2023-05-19T04:15:15;10.40;99.90
20829;DHT22;10575;50.124;8.582;2023-05-19T04:17:41;10.50;99.90
20829;DHT22;10575;50.124;8.582;2023-05-19T04:20:07;10.70;99.90
20829;DHT22;10575;50.124;8.582;2023-05-19T04:22:33;10.70;99.90
20829;DHT22;10575;50.124;8.582;2023-05-19T04:24:58;10.70;99.90
20829;DHT22;10575;50.124;8.582;2023-05-19T04:27:24;10.80;99.90
20829;DHT22;10575;50.124;8.582;2023-05-19T04:29:52;10.80;99.90
20829;DHT22;10575;50.124;8.582;2023-05-19T04:32:19;10.80;99.90
20829;DHT22;10575;50.124;8.582;2023-05-19T04:34:44;10.80;99.90
20829;DHT22;10575;50.124;8.582;2023-05-19T04:37:13;10.80;99.90
20829;DHT22;10575;50.124;8.582;2023-05-19T04:39:41;10.80;99.90
20829;DHT22;10575;50.124;8.582;2023-05-19T04:42:10;10.80;99.90
20829;DHT22;10575;50.124;8.582;2023-05-19T04:44:36;10.80;99.90
20829;DHT22;10575;50.124;8.582;2023-05-19T04:47:07;10.90;99.90
20829;DHT22;10575;50.124;8.582;2023-05-19T04:49:33;11.00;99.90
20829;DHT22;10575;50.124;8.582;2023-05-19T04:52:07;11.10;99.90
20829;DHT22;10575;50.124;8.582;2023-05-19T04:54:35;11.30;99.90
20829;DHT22;10575;50.124;8.582;2023-05-19T04:57:00;11.40;99.90
20829;DHT22;10575;50.124;8.582;2023-05-19T04:59:26;11.60;99.90
20829;DHT22;10575;50.124;8.582;2023-05-19T05:01:51;11.70;99.90
20829;DHT22;10575;50.124;8.582;2023-05-19T05:04:18;11.80;99.90
20829;DHT22;10575;50.124;8.582;2023-05-19T05:06:43;11.90;99.90
20829;DHT22;10575;50.124;8.582;2023-05-19T05:09:13;12.10;99.90
20829;DHT22;10575;50.124;8.582;2023-05-19T05:11:39;12.20;99.90
20829;DHT22;10575;50.124;8.582;2023-05-19T05:14:04;12.20;99.90
20829;DHT22;10575;50.124;8.582;2023-05-19T05:16:30;12.30;99.90
20829;DHT22;10575;50.124;8.582;2023-05-19T05:18:57;12.40;99.90
20829;DHT22;10575;50.124;8.582;2023-05-19T05:21:23;12.40;99.90
20829;DHT22;10575;50.124;8.582;2023-05-19T05:23:50;12.30;99.90
20829;DHT22;10575;50.124;8.582;2023-05-19T05:26:17;12.30;99.90
20829;DHT22;10575;50.124;8.582;2023-05-19T05:28:44;12.40;99.90
20829;DHT22;10575;50.124;8.582;2023-05-19T05:31:09;12.70;99.90
20829;DHT22;10575;50.124;8.582;2023-05-19T05:33:36;12.70;99.90
20829;DHT22;10575;50.124;8.582;2023-05-19T05:36:01;12.70;99.90
20829;DHT22;10575;50.124;8.582;2023-05-19T05:38:27;13.20;99.90
20829;DHT22;10575;50.124;8.582;2023-05-19T05:40:52;13.50;99.90
20829;DHT22;10575;50.124;8.582;2023-05-19T05:43:18;13.70;99.90
20829;DHT22;10575;50.124;8.582;2023-05-19T05:45:43;13.70;99.90
20829;DHT22;10575;50.124;8.582;2023-05-19T05:48:09;14.40;99.90
20829;DHT22;10575;50.124;8.582;2023-05-19T05:50:35;15.20;99.90
20829;DHT22;10575;50.124;8.582;2023-05-19T05:53:02;16.20;99.90
20829;DHT22;10575;50.124;8.582;2023-05-19T05:55:29;17.50;99.90
20829;DHT22;10575;50.124;8.582;2023-05-19T05:57:55;18.20;99.90
20829;DHT22;10575;50.124;8.582;2023-05-19T06:00:21;19.80;99.90
20829;DHT22;10575;50.124;8.582;2023-05-19T06:02:48;21.20;98.80
20829;DHT22;10575;50.124;8.582;2023-05-19T06:05:15;21.90;94.30
20829;DHT22;10575;50.124;8.582;2023-05-19T06:07:40;22.60;91.20
20829;DHT22;10575;50.124;8.582;2023-05-19T06:10:07;23.20;87.00
20829;DHT22;10575;50.124;8.582;2023-05-19T06:12:33;23.20;82.10
20829;DHT22;10575;50.124;8.582;2023-05-19T06:15:00;21.80;86.50
20829;DHT22;10575;50.124;8.582;2023-05-19T06:17:26;20.90;87.80
20829;DHT22;10575;50.124;8.582;2023-05-19T06:19:51;20.20;90.30
20829;DHT22;10575;50.124;8.582;2023-05-19T06:22:17;19.80;91.40
20829;DHT22;10575;50.124;8.582;2023-05-19T06:24:42;19.00;93.10
20829;DHT22;10575;50.124;8.582;2023-05-19T06:27:08;18.90;94.10
20829;DHT22;10575;50.124;8.582;2023-05-19T06:29:33;19.50;94.10
20829;DHT22;10575;50.124;8.582;2023-05-19T06:31:59;20.00;93.20
20829;DHT22;10575;50.124;8.582;2023-05-19T06:34:24;20.70;92.30
20829;DHT22;10575;50.124;8.582;2023-05-19T06:36:51;21.50;90.30
20829;DHT22;10575;50.124;8.582;2023-05-19T06:39:16;21.90;87.20
20829;DHT22;10575;50.124;8.582;2023-05-19T06:41:42;21.60;85.50
20829;DHT22;10575;50.124;8.582;2023-05-19T06:44:07;21.50;86.10
20829;DHT22;10575;50.124;8.582;2023-05-19T06:46:33;21.80;83.70
20829;DHT22;10575;50.124;8.582;2023-05-19T06:48:59;21.00;83.50
20829;DHT22;10575;50.124;8.582;2023-05-19T06:51:24;20.60;83.60
20829;DHT22;10575;50.124;8.582;2023-05-19T06:53:50;19.70;86.70
20829;DHT22;10575;50.124;8.582;2023-05-19T06:56:16;19.40;87.50
20829;DHT22;10575;50.124;8.582;2023-05-19T06:58:43;19.40;86.50
20829;DHT22;10575;50.124;8.582;2023-05-19T07:01:09;19.20;86.30
20829;DHT22;10575;50.124;8.582;2023-05-19T07:03:34;19.70;87.70
20829;DHT22;10575;50.124;8.582;2023-05-19T07:06:00;21.30;85.20
20829;DHT22;10575;50.124;8.582;2023-05-19T07:08:26;24.10;75.80
20829;DHT22;10575;50.124;8.582;2023-05-19T07:10:52;25.40;70.50
20829;DHT22;10575;50.124;8.582;2023-05-19T07:13:18;26.10;66.60
20829;DHT22;10575;50.124;8.582;2023-05-19T07:15:43;27.20;62.20
20829;DHT22;10575;50.124;8.582;2023-05-19T07:18:09;26.70;61.00
20829;DHT22;10575;50.124;8.582;2023-05-19T07:20:34;25.60;61.30
20829;DHT22;10575;50.124;8.582;2023-05-19T07:23:00;26.40;62.80
20829;DHT22;10575;50.124;8.582;2023-05-19T07:25:27;27.60;58.30
20829;DHT22;10575;50.124;8.582;2023-05-19T07:27:55;27.80;56.30
20829;DHT22;10575;50.124;8.582;2023-05-19T07:30:20;28.20;54.60
20829;DHT22;10575;50.124;8.582;2023-05-19T07:32:46;27.60;54.20
20829;DHT22;10575;50.124;8.582;2023-05-19T07:35:11;26.10;56.90
20829;DHT22;10575;50.124;8.582;2023-05-19T07:37:37;27.60;53.80
20829;DHT22;10575;50.124;8.582;2023-05-19T07:40:03;27.70;55.00
20829;DHT22;10575;50.124;8.582;2023-05-19T07:42:29;29.70;52.60
20829;DHT22;10575;50.124;8.582;2023-05-19T07:44:55;30.50;49.20
20829;DHT22;10575;50.124;8.582;2023-05-19T07:47:20;30.10;49.40
20829;DHT22;10575;50.124;8.582;2023-05-19T07:49:46;28.70;51.70
20829;DHT22;10575;50.124;8.582;2023-05-19T07:52:11;27.40;51.20
20829;DHT22;10575;50.124;8.582;2023-05-19T07:54:37;25.30;55.90
20829;DHT22;10575;50.124;8.582;2023-05-19T07:57:03;26.80;55.10
20829;DHT22;10575;50.124;8.582;2023-05-19T07:59:28;28.20;54.00
20829;DHT22;10575;50.124;8.582;2023-05-19T08:01:54;29.80;50.20
20829;DHT22;10575;50.124;8.582;2023-05-19T08:04:19;31.40;48.20
20829;DHT22;10575;50.124;8.582;2023-05-19T08:06:45;33.20;44.60
20829;DHT22;10575;50.124;8.582;2023-05-19T08:09:10;32.90;42.80
20829;DHT22;10575;50.124;8.582;2023-05-19T08:11:36;32.20;43.50
20829;DHT22;10575;50.124;8.582;2023-05-19T08:14:02;31.90;43.30
20829;DHT22;10575;50.124;8.582;2023-05-19T08:16:28;31.20;43.50
20829;DHT22;10575;50.124;8.582;2023-05-19T08:18:53;30.40;46.30
20829;DHT22;10575;50.124;8.582;2023-05-19T08:21:19;31.50;44.00
20829;DHT22;10575;50.124;8.582;2023-05-19T08:23:45;31.10;43.60
20829;DHT22;10575;50.124;8.582;2023-05-19T08:26:11;31.50;42.60
20829;DHT22;10575;50.124;8.582;2023-05-19T08:28:36;31.90;42.60
20829;DHT22;10575;50.124;8.582;2023-05-19T08:31:02;32.60;41.40
20829;DHT22;10575;50.124;8.582;2023-05-19T08:33:28;34.30;40.70
20829;DHT22;10575;50.124;8.582;2023-05-19T08:35:55;35.00;38.70
20829;DHT22;10575;50.124;8.582;2023-05-19T08:38:22;37.10;37.40
20829;DHT22;10575;50.124;8.582;2023-05-19T08:40:48;37.90;33.40
20829;DHT22;10575;50.124;8.582;2023-05-19T08:43:13;38.40;33.30
20829;DHT22;10575;50.124;8.582;2023-05-19T08:45:42;38.10;32.50
20829;DHT22;10575;50.124;8.582;2023-05-19T08:48:08;38.50;32.10
20829;DHT22;10575;50.124;8.582;2023-05-19T08:50:38;38.70;32.40
20829;DHT22;10575;50.124;8.582;2023-05-19T08:53:07;37.90;30.50
20829;DHT22;10575;50.124;8.582;2023-05-19T08:55:44;40.20;29.30
20829;DHT22;10575;50.124;8.582;2023-05-19T08:58:11;40.60;29.30
20829;DHT22;10575;50.124;8.582;2023-05-19T09:00:37;40.20;27.70
20829;DHT22;10575;50.124;8.582;2023-05-19T09:03:03;40.20;27.80
20829;DHT22;10575;50.124;8.582;2023-05-19T09:05:29;38.80;28.10
20829;DHT22;10575;50.124;8.582;2023-05-19T09:07:56;36.80;30.00
20829;DHT22;10575;50.124;8.582;2023-05-19T09:10:22;36.10;31.00
20829;DHT22;10575;50.124;8.582;2023-05-19T09:12:47;37.00;30.00
20829;DHT22;10575;50.124;8.582;2023-05-19T09:15:18;39.00;28.40
20829;DHT22;10575;50.124;8.582;2023-05-19T09:17:45;38.50;28.10
20829;DHT22;10575;50.124;8.582;2023-05-19T09:20:12;38.40;28.50
20829;DHT22;10575;50.124;8.582;2023-05-19T09:22:42;37.50;29.90
20829;DHT22;10575;50.124;8.582;2023-05-19T09:25:21;37.20;29.40
20829;DHT22;10575;50.124;8.582;2023-05-19T09:27:48;34.70;30.40
20829;DHT22;10575;50.124;8.582;2023-05-19T09:30:15;31.80;35.80
20829;DHT22;10575;50.124;8.582;2023-05-19T09:32:41;29.10;36.90
20829;DHT22;10575;50.124;8.582;2023-05-19T09:35:07;27.00;40.30
20829;DHT22;10575;50.124;8.582;2023-05-19T09:37:33;25.00;43.30
20829;DHT22;10575;50.124;8.582;2023-05-19T09:39:58;24.10;46.80
20829;DHT22;10575;50.124;8.582;2023-05-19T09:42:24;23.60;49.00
20829;DHT22;10575;50.124;8.582;2023-05-19T09:44:59;23.40;47.10
20829;DHT22;10575;50.124;8.582;2023-05-19T09:47:25;23.20;45.80
20829;DHT22;10575;50.124;8.582;2023-05-19T09:49:52;23.50;45.30
20829;DHT22;10575;50.124;8.582;2023-05-19T09:52:18;23.60;46.20
20829;DHT22;10575;50.124;8.582;2023-05-19T09:54:44;24.30;47.40
20829;DHT22;10575;50.124;8.582;2023-05-19T09:57:09;24.20;46.60
20829;DHT22;10575;50.124;8.582;2023-05-19T09:59:35;23.80;47.40
20829;DHT22;10575;50.124;8.582;2023-05-19T10:02:03;23.40;48.40
20829;DHT22;10575;50.124;8.582;2023-05-19T10:04:30;23.00;48.50
20829;DHT22;10575;50.124;8.582;2023-05-19T10:06:57;22.50;48.20
20829;DHT22;10575;50.124;8.582;2023-05-19T10:09:29;22.50;50.10
20829;DHT22;10575;50.124;8.582;2023-05-19T10:11:56;22.30;50.20
20829;DHT22;10575;50.124;8.582;2023-05-19T10:14:23;22.20;49.90
20829;DHT22;10575;50.124;8.582;2023-05-19T10:16:57;22.10;50.80
20829;DHT22;10575;50.124;8.582;2023-05-19T10:19:24;22.30;51.00
20829;DHT22;10575;50.124;8.582;2023-05-19T10:21:50;22.70;50.30
20829;DHT22;10575;50.124;8.582;2023-05-19T10:24:17;23.10;50.00
20829;DHT22;10575;50.124;8.582;2023-05-19T10:29:17;23.50;50.50
20829;DHT22;10575;50.124;8.582;2023-05-19T10:31:44;23.40;49.60
20829;DHT22;10575;50.124;8.582;2023-05-19T10:36:48;22.60;49.30
20829;DHT22;10575;50.124;8.582;2023-05-19T10:39:33;22.30;50.70
20829;DHT22;10575;50.124;8.582;2023-05-19T10:42:35;22.30;51.00
20829;DHT22;10575;50.124;8.582;2023-05-19T10:45:20;22.30;49.50
20829;DHT22;10575;50.124;8.582;2023-05-19T10:47:46;22.30;48.90
20829;DHT22;10575;50.124;8.582;2023-05-19T10:50:14;22.40;48.50
20829;DHT22;10575;50.124;8.582;2023-05-19T10:52:40;22.20;51.10
20829;DHT22;10575;50.124;8.582;2023-05-19T10:55:11;22.40;50.10
20829;DHT22;10575;50.124;8.582;2023-05-19T10:57:55;22.70;50.30
20829;DHT22;10575;50.124;8.582;2023-05-19T11:00:29;22.50;49.00
20829;DHT22;10575;50.124;8.582;2023-05-19T11:03:15;22.60;48.20
20829;DHT22;10575;50.124;8.582;2023-05-19T11:05:42;22.70;47.80
20829;DHT22;10575;50.124;8.582;2023-05-19T11:08:11;22.30;47.50
20829;DHT22;10575;50.124;8.582;2023-05-19T11:10:37;21.90;50.50
20829;DHT22;10575;50.124;8.582;2023-05-19T11:13:07;21.90;51.50
20829;DHT22;10575;50.124;8.582;2023-05-19T11:15:44;22.00;51.70
20829;DHT22;10575;50.124;8.582;2023-05-19T11:18:13;22.00;52.50
20829;DHT22;10575;50.124;8.582;2023-05-19T11:20:40;21.90;51.60
20829;DHT22;10575;50.124;8.582;2023-05-19T11:23:15;22.30;53.20
20829;DHT22;10575;50.124;8.582;2023-05-19T11:25:49;22.60;52.60
20829;DHT22;10575;50.124;8.582;2023-05-19T11:28:18;22.70;50.50
20829;DHT22;10575;50.124;8.582;2023-05-19T11:30:45;22.60;51.60
20829;DHT22;10575;50.124;8.582;2023-05-19T11:33:11;22.50;52.50
20829;DHT22;10575;50.124;8.582;2023-05-19T11:35:38;22.30;52.40
20829;DHT22;10575;50.124;8.582;2023-05-19T11:38:04;22.30;52.80
20829;DHT22;10575;50.124;8.582;2023-05-19T11:40:31;22.50;53.10
20829;DHT22;10575;50.124;8.582;2023-05-19T11:42:57;22.20;55.00
20829;DHT22;10575;50.124;8.582;2023-05-19T11:45:27;22.20;54.40
20829;DHT22;10575;50.124;8.582;2023-05-19T11:47:57;22.00;55.70
20829;DHT22;10575;50.124;8.582;2023-05-19T11:50:23;21.80;54.50
20829;DHT22;10575;50.124;8.582;2023-05-19T11:52:50;21.90;54.20
20829;DHT22;10575;50.124;8.582;2023-05-19T11:55:19;21.50;54.90
20829;DHT22;10575;50.124;8.582;2023-05-19T12:00:27;21.10;56.10
20829;DHT22;10575;50.124;8.582;2023-05-19T12:02:53;21.20;57.60
20829;DHT22;10575;50.124;8.582;2023-05-19T12:05:23;21.40;56.10
20829;DHT22;10575;50.124;8.582;2023-05-19T12:07:50;21.80;56.50
20829;DHT22;10575;50.124;8.582;2023-05-19T12:10:21;22.10;56.10
20829;DHT22;10575;50.124;8.582;2023-05-19T12:12:47;22.10;55.40
20829;DHT22;10575;50.124;8.582;2023-05-19T12:15:18;22.10;55.50
20829;DHT22;10575;50.124;8.582;2023-05-19T12:17:47;21.80;54.70
20829;DHT22;10575;50.124;8.582;2023-05-19T12:20:13;21.50;55.00
20829;DHT22;10575;50.124;8.582;2023-05-19T12:22:39;21.20;55.60
20829;DHT22;10575;50.124;8.582;2023-05-19T12:25:05;21.20;57.40
20829;DHT22;10575;50.124;8.582;2023-05-19T12:27:34;21.50;57.10
20829;DHT22;10575;50.124;8.582;2023-05-19T12:30:03;21.50;57.80
20829;DHT22;10575;50.124;8.582;2023-05-19T12:32:28;21.50;57.30
20829;DHT22;10575;50.124;8.582;2023-05-19T12:34:57;21.50;55.90
20829;DHT22;10575;50.124;8.582;2023-05-19T12:37:26;21.50;57.10
20829;DHT22;10575;50.124;8.582;2023-05-19T12:39:55;21.70;58.20
20829;DHT22;10575;50.124;8.582;2023-05-19T12:42:21;22.10;59.10
20829;DHT22;10575;50.124;8.582;2023-05-19T12:44:49;22.60;56.40
20829;DHT22;10575;50.124;8.582;2023-05-19T12:47:17;22.80;56.10
20829;DHT22;10575;50.124;8.582;2023-05-19T12:50:00;22.60;56.20
20829;DHT22;10575;50.124;8.582;2023-05-19T12:52:28;22.50;55.50
20829;DHT22;10575;50.124;8.582;2023-05-19T12:55:02;22.60;55.20
20829;DHT22;10575;50.124;8.582;2023-05-19T12:57:39;22.80;56.00
20829;DHT22;10575;50.124;8.582;2023-05-19T13:00:07;23.00;56.00
20829;DHT22;10575;50.124;8.582;2023-05-19T13:02:36;23.00;53.80
20829;DHT22;10575;50.124;8.582;2023-05-19T13:05:19;22.60;54.10
20829;DHT22;10575;50.124;8.582;2023-05-19T13:07:59;22.30;55.50
20829;DHT22;10575;50.124;8.582;2023-05-19T13:10:27;22.30;56.20
20829;DHT22;10575;50.124;8.582;2023-05-19T13:12:57;22.20;57.70
20829;DHT22;10575;50.124;8.582;2023-05-19T13:15:25;22.30;56.20
20829;DHT22;10575;50.124;8.582;2023-05-19T13:17:54;22.60;57.20
20829;DHT22;10575;50.124;8.582;2023-05-19T13:20:20;22.70;57.00
20829;DHT22;10575;50.124;8.582;2023-05-19T13:22:50;22.70;56.60
20829;DHT22;10575;50.124;8.582;2023-05-19T13:25:16;22.50;56.00
20829;DHT22;10575;50.124;8.582;2023-05-19T13:27:45;22.40;55.90
20829;DHT22;10575;50.124;8.582;2023-05-19T13:30:11;22.30;56.90
20829;DHT22;10575;50.124;8.582;2023-05-19T13:32:37;22.40;55.50
20829;DHT22;10575;50.124;8.582;2023-05-19T13:35:03;22.40;55.50
20829;DHT22;10575;50.124;8.582;2023-05-19T13:37:28;22.50;57.20
20829;DHT22;10575;50.124;8.582;2023-05-19T13:39:54;22.50;57.20
20829;DHT22;10575;50.124;8.582;2023-05-19T13:42:21;22.40;55.50
20829;DHT22;10575;50.124;8.582;2023-05-19T13:44:47;22.50;55.20
20829;DHT22;10575;50.124;8.582;2023-05-19T13:47:13;22.60;54.70
20829;DHT22;10575;50.124;8.582;2023-05-19T13:49:39;22.60;54.60
20829;DHT22;10575;50.124;8.582;2023-05-19T13:52:06;22.60;53.50
20829;DHT22;10575;50.124;8.582;2023-05-19T13:54:32;22.40;53.30
20829;DHT22;10575;50.124;8.582;2023-05-19T13:56:58;22.60;55.50
20829;DHT22;10575;50.124;8.582;2023-05-19T13:59:27;23.10;53.50
20829;DHT22;10575;50.124;8.582;2023-05-19T14:01:52;23.20;52.80
20829;DHT22;10575;50.124;8.582;2023-05-19T14:04:18;23.00;52.30
20829;DHT22;10575;50.124;8.582;2023-05-19T14:06:45;22.80;53.20
20829;DHT22;10575;50.124;8.582;2023-05-19T14:09:10;22.60;54.30
20829;DHT22;10575;50.124;8.582;2023-05-19T14:11:36;22.60;54.40
20829;DHT22;10575;50.124;8.582;2023-05-19T14:14:02;22.70;55.60
20829;DHT22;10575;50.124;8.582;2023-05-19T14:16:28;23.10;54.50
20829;DHT22;10575;50.124;8.582;2023-05-19T14:18:54;23.40;54.20
20829;DHT22;10575;50.124;8.582;2023-05-19T14:21:20;23.10;53.80
20829;DHT22;10575;50.124;8.582;2023-05-19T14:23:46;22.80;54.10
20829;DHT22;10575;50.124;8.582;2023-05-19T14:26:11;22.90;55.30
20829;DHT22;10575;50.124;8.582;2023-05-19T14:28:37;22.90;54.00
20829;DHT22;10575;50.124;8.582;2023-05-19T14:31:03;23.10;53.70
20829;DHT22;10575;50.124;8.582;2023-05-19T14:33:28;22.90;54.00
20829;DHT22;10575;50.124;8.582;2023-05-19T14:35:54;22.50;56.30
20829;DHT22;10575;50.124;8.582;2023-05-19T14:38:20;22.20;56.40
20829;DHT22;10575;50.124;8.582;2023-05-19T14:40:45;22.10;56.60
20829;DHT22;10575;50.124;8.582;2023-05-19T14:43:12;22.10;58.40
20829;DHT22;10575;50.124;8.582;2023-05-19T14:45:38;22.20;58.00
20829;DHT22;10575;50.124;8.582;2023-05-19T14:48:06;22.40;56.90
20829;DHT22;10575;50.124;8.582;2023-05-19T14:50:32;22.30;57.10
20829;DHT22;10575;50.124;8.582;2023-05-19T14:52:57;22.10;57.60
20829;DHT22;10575;50.124;8.582;2023-05-19T14:55:23;22.00;57.90
20829;DHT22;10575;50.124;8.582;2023-05-19T14:57:48;22.00;58.20
20829;DHT22;10575;50.124;8.582;2023-05-19T15:00:14;22.00;58.70
20829;DHT22;10575;50.124;8.582;2023-05-19T15:02:41;21.80;59.10
20829;DHT22;10575;50.124;8.582;2023-05-19T15:05:07;21.80;59.50
20829;DHT22;10575;50.124;8.582;2023-05-19T15:07:32;21.80;59.60
20829;DHT22;10575;50.124;8.582;2023-05-19T15:09:58;21.90;59.60
20829;DHT22;10575;50.124;8.582;2023-05-19T15:12:23;21.80;58.00
20829;DHT22;10575;50.124;8.582;2023-05-19T15:14:49;21.80;58.90
20829;DHT22;10575;50.124;8.582;2023-05-19T15:17:14;21.60;59.30
20829;DHT22;10575;50.124;8.582;2023-05-19T15:19:40;21.40;60.50
20829;DHT22;10575;50.124;8.582;2023-05-19T15:22:07;21.30;61.90
20829;DHT22;10575;50.124;8.582;2023-05-19T15:24:33;21.30;60.20
20829;DHT22;10575;50.124;8.582;2023-05-19T15:26:59;21.30;59.50
20829;DHT22;10575;50.124;8.582;2023-05-19T15:29:25;21.30;60.70
20829;DHT22;10575;50.124;8.582;2023-05-19T15:31:50;21.10;61.30
20829;DHT22;10575;50.124;8.582;2023-05-19T15:34:17;20.90;62.70
20829;DHT22;10575;50.124;8.582;2023-05-19T15:36:42;20.90;62.60
20829;DHT22;10575;50.124;8.582;2023-05-19T15:39:08;20.80;64.30
20829;DHT22;10575;50.124;8.582;2023-05-19T15:41:34;20.80;63.70
20829;DHT22;10575;50.124;8.582;2023-05-19T15:44:00;20.80;63.90
20829;DHT22;10575;50.124;8.582;2023-05-19T15:46:29;20.90;63.50
20829;DHT22;10575;50.124;8.582;2023-05-19T15:48:55;21.00;63.00
20829;DHT22;10575;50.124;8.582;2023-05-19T15:51:20;20.90;63.90